sensor_id;sensor_type;location;lat;lon;timestamp;temperature;humidity
25192;DHT22;13143;50.924;5.320;2023-08-24T00:01:26;23.30;99.90
25192;DHT22;13143;50.924;5.320;2023-08-24T00:03:52;23.30;99.90
25192;DHT22;13143;50.924;5.320;2023-08-24T00:06:19;23.30;99.90
25192;DHT22;13143;50.924;5.320;2023-08-24T00:08:45;23.30;99.90
25192;DHT22;13143;50.924;5.320;2023-08-24T00:11:11;23.20;99.90
25192;DHT22;13143;50.924;5.320;2023-08-24T00:13:44;23.20;99.90
25192;DHT22;13143;50.924;5.320;2023-08-24T00:16:17;23.20;99.90
25192;DHT22;13143;50.924;5.320;2023-08-24T00:18:46;23.20;99.90
25192;DHT22;13143;50.924;5.320;2023-08-24T00:21:16;23.20;99.90
25192;DHT22;13143;50.924;5.320;2023-08-24T00:23:49;23.20;99.90
25192;DHT22;13143;50.924;5.320;2023-08-24T00:26:15;23.10;99.90
25192;DHT22;13143;50.924;5.320;2023-08-24T00:28:44;23.10;99.90
25192;DHT22;13143;50.924;5.320;2023-08-24T00:31:11;23.10;99.90
25192;DHT22;13143;50.924;5.320;2023-08-24T00:33:37;23.10;99.90
25192;DHT22;13143;50.924;5.320;2023-08-24T00:36:05;23.10;99.90
25192;DHT22;13143;50.924;5.320;2023-08-24T00:38:31;23.00;99.90
25192;DHT22;13143;50.924;5.320;2023-08-24T00:40:58;23.00;99.90
25192;DHT22;13143;50.924;5.320;2023-08-24T00:43:26;23.00;99.90
25192;DHT22;13143;50.924;5.320;2023-08-24T00:45:55;22.90;99.90
25192;DHT22;13143;50.924;5.320;2023-08-24T00:48:22;22.90;99.90
25192;DHT22;13143;50.924;5.320;2023-08-24T00:50:52;22.90;99.90
25192;DHT22;13143;50.924;5.320;2023-08-24T00:53:19;22.90;99.90
25192;DHT22;13143;50.924;5.320;2023-08-24T00:55:46;22.90;99.90
25192;DHT22;13143;50.924;5.320;2023-08-24T00:58:13;22.80;99.90
25192;DHT22;13143;50.924;5.320;2023-08-24T01:00:41;22.80;99.90
25192;DHT22;13143;50.924;5.320;2023-08-24T01:03:07;22.80;99.90
25192;DHT22;13143;50.924;5.320;2023-08-24T01:05:33;22.80;99.90
25192;DHT22;13143;50.924;5.320;2023-08-24T01:08:00;22.80;99.90
25192;DHT22;13143;50.924;5.320;2023-08-24T01:10:32;22.70;99.90
25192;DHT22;13143;50.924;5.320;2023-08-24T01:13:07;22.70;99.90
25192;DHT22;13143;50.924;5.320;2023-08-24T01:15:48;22.70;99.90
25192;DHT22;13143;50.924;5.320;2023-08-24T01:18:17;22.70;99.90
25192;DHT22;13143;50.924;5.320;2023-08-24T01:20:47;22.60;99.90
25192;DHT22;13143;50.924;5.320;2023-08-24T01:25:54;22.60;99.90
25192;DHT22;13143;50.924;5.320;2023-08-24T01:28:22;22.60;99.90
25192;DHT22;13143;50.924;5.320;2023-08-24T01:30:49;22.50;99.90
25192;DHT22;13143;50.924;5.320;2023-08-24T01:33:15;22.50;99.90
25192;DHT22;13143;50.924;5.320;2023-08-24T01:35:41;22.50;99.90
25192;DHT22;13143;50.924;5.320;2023-08-24T01:38:08;22.50;99.90
25192;DHT22;13143;50.924;5.320;2023-08-24T01:40:58;22.50;99.90
25192;DHT22;13143;50.924;5.320;2023-08-24T01:43:29;22.50;99.90
25192;DHT22;13143;50.924;5.320;2023-08-24T01:45:58;22.40;99.90
25192;DHT22;13143;50.924;5.320;2023-08-24T01:48:25;22.40;99.90
25192;DHT22;13143;50.924;5.320;2023-08-24T01:50:52;22.40;99.90
25192;DHT22;13143;50.924;5.320;2023-08-24T01:53:18;22.40;99.90
25192;DHT22;13143;50.924;5.320;2023-08-24T01:55:45;22.40;99.90
25192;DHT22;13143;50.924;5.320;2023-08-24T01:58:12;22.40;99.90
25192;DHT22;13143;50.924;5.320;2023-08-24T02:00:38;22.40;99.90
25192;DHT22;13143;50.924;5.320;2023-08-24T02:03:04;22.40;99.90
25192;DHT22;13143;50.924;5.320;2023-08-24T02:05:30;22.40;99.90
25192;DHT22;13143;50.924;5.320;2023-08-24T02:07:56;22.30;99.90
25192;DHT22;13143;50.924;5.320;2023-08-24T02:10:23;22.30;99.90
25192;DHT22;13143;50.924;5.320;2023-08-24T02:12:49;22.30;99.90
25192;DHT22;13143;50.924;5.320;2023-08-24T02:15:15;22.30;99.90
25192;DHT22;13143;50.924;5.320;2023-08-24T02:17:41;22.30;99.90
25192;DHT22;13143;50.924;5.320;2023-08-24T02:20:08;22.30;99.90
25192;DHT22;13143;50.924;5.320;2023-08-24T02:22:34;22.30;99.90
25192;DHT22;13143;50.924;5.320;2023-08-24T02:25:01;22.20;99.90
25192;DHT22;13143;50.924;5.320;2023-08-24T02:27:28;22.20;99.90
25192;DHT22;13143;50.924;5.320;2023-08-24T02:29:54;22.20;99.90
25192;DHT22;13143;50.924;5.320;2023-08-24T02:32:21;22.20;99.90
25192;DHT22;13143;50.924;5.320;2023-08-24T02:34:47;22.20;99.90
25192;DHT22;13143;50.924;5.320;2023-08-24T02:37:13;22.20;99.90
25192;DHT22;13143;50.924;5.320;2023-08-24T02:39:39;22.20;99.90
25192;DHT22;13143;50.924;5.320;2023-08-24T02:42:05;22.20;99.90
25192;DHT22;13143;50.924;5.320;2023-08-24T02:44:31;22.20;99.90
25192;DHT22;13143;50.924;5.320;2023-08-24T02:46:57;22.20;99.90
25192;DHT22;13143;50.924;5.320;2023-08-24T02:49:24;22.20;99.90
25192;DHT22;13143;50.924;5.320;2023-08-24T02:51:50;22.20;99.90
25192;DHT22;13143;50.924;5.320;2023-08-24T02:54:16;22.20;99.90
25192;DHT22;13143;50.924;5.320;2023-08-24T02:56:45;22.20;99.90
25192;DHT22;13143;50.924;5.320;2023-08-24T02:59:11;22.20;99.90
25192;DHT22;13143;50.924;5.320;2023-08-24T03:01:38;22.20;99.90
25192;DHT22;13143;50.924;5.320;2023-08-24T03:04:07;22.20;99.90
25192;DHT22;13143;50.924;5.320;2023-08-24T03:06:33;22.20;99.90
25192;DHT22;13143;50.924;5.320;2023-08-24T03:09:01;22.20;99.90
25192;DHT22;13143;50.924;5.320;2023-08-24T03:11:30;22.20;99.90
25192;DHT22;13143;50.924;5.320;2023-08-24T03:13:56;22.20;99.90
25192;DHT22;13143;50.924;5.320;2023-08-24T03:16:22;22.20;99.90
25192;DHT22;13143;50.924;5.320;2023-08-24T03:18:48;22.20;99.90
25192;DHT22;13143;50.924;5.320;2023-08-24T03:21:15;22.20;99.90
25192;DHT22;13143;50.924;5.320;2023-08-24T03:23:41;22.20;99.90
25192;DHT22;13143;50.924;5.320;2023-08-24T03:26:07;22.20;99.90
25192;DHT22;13143;50.924;5.320;2023-08-24T03:28:33;22.20;99.90
25192;DHT22;13143;50.924;5.320;2023-08-24T03:31:00;22.20;99.90
25192;DHT22;13143;50.924;5.320;2023-08-24T03:33:26;22.10;99.90
25192;DHT22;13143;50.924;5.320;2023-08-24T03:35:54;22.10;99.90
25192;DHT22;13143;50.924;5.320;2023-08-24T03:38:20;22.10;99.90
25192;DHT22;13143;50.924;5.320;2023-08-24T03:40:46;22.10;99.90
25192;DHT22;13143;50.924;5.320;2023-08-24T03:43:12;22.10;99.90
25192;DHT22;13143;50.924;5.320;2023-08-24T03:45:38;22.10;99.90
25192;DHT22;13143;50.924;5.320;2023-08-24T03:48:05;22.10;99.90
25192;DHT22;13143;50.924;5.320;2023-08-24T03:50:31;22.10;99.90
25192;DHT22;13143;50.924;5.320;2023-08-24T03:52:57;22.10;99.90
25192;DHT22;13143;50.924;5.320;2023-08-24T03:55:23;22.10;99.90
25192;DHT22;13143;50.924;5.320;2023-08-24T03:57:49;22.10;99.90
25192;DHT22;13143;50.924;5.320;2023-08-24T04:00:16;22.10;99.90
25192;DHT22;13143;50.924;5.320;2023-08-24T04:02:43;22.00;99.90
25192;DHT22;13143;50.924;5.320;2023-08-24T04:05:09;22.10;99.90
25192;DHT22;13143;50.924;5.320;2023-08-24T04:07:36;22.00;99.90
25192;DHT22;13143;50.924;5.320;2023-08-24T04:10:07;22.00;99.90
25192;DHT22;13143;50.924;5.320;2023-08-24T04:12:33;22.00;99.90
25192;DHT22;13143;50.924;5.320;2023-08-24T04:15:00;22.00;99.90
25192;DHT22;13143;50.924;5.320;2023-08-24T04:17:26;22.00;99.90
25192;DHT22;13143;50.924;5.320;2023-08-24T04:19:52;22.00;99.90
25192;DHT22;13143;50.924;5.320;2023-08-24T04:22:18;22.00;99.90
25192;DHT22;13143;50.924;5.320;2023-08-24T04:24:44;22.00;99.90
25192;DHT22;13143;50.924;5.320;2023-08-24T04:27:10;22.00;99.90
25192;DHT22;13143;50.924;5.320;2023-08-24T04:29:37;22.00;99.90
25192;DHT22;13143;50.924;5.320;2023-08-24T04:32:03;22.00;99.90
25192;DHT22;13143;50.924;5.320;2023-08-24T04:34:30;22.00;99.90
25192;DHT22;13143;50.924;5.320;2023-08-24T04:36:56;22.00;99.90
25192;DHT22;13143;50.924;5.320;2023-08-24T04:39:22;22.00;99.90
25192;DHT22;13143;50.924;5.320;2023-08-24T04:41:48;22.00;99.90
25192;DHT22;13143;50.924;5.320;2023-08-24T04:44:14;21.90;99.90
25192;DHT22;13143;50.924;5.320;2023-08-24T04:46:41;21.90;99.90
25192;DHT22;13143;50.924;5.320;2023-08-24T04:49:07;21.90;99.90
25192;DHT22;13143;50.924;5.320;2023-08-24T04:51:33;21.90;99.90
25192;DHT22;13143;50.924;5.320;2023-08-24T04:53:59;21.90;99.90
25192;DHT22;13143;50.924;5.320;2023-08-24T04:56:25;21.90;99.90
25192;DHT22;13143;50.924;5.320;2023-08-24T04:58:55;21.90;99.90
25192;DHT22;13143;50.924;5.320;2023-08-24T05:01:26;21.90;99.90
25192;DHT22;13143;50.924;5.320;2023-08-24T05:03:52;21.90;99.90
25192;DHT22;13143;50.924;5.320;2023-08-24T05:06:20;21.80;99.90
25192;DHT22;13143;50.924;5.320;2023-08-24T05:08:46;21.80;99.90
25192;DHT22;13143;50.924;5.320;2023-08-24T05:11:20;21.80;99.90
25192;DHT22;13143;50.924;5.320;2023-08-24T05:13:46;21.80;99.90
25192;DHT22;13143;50.924;5.320;2023-08-24T05:16:13;21.80;99.90
25192;DHT22;13143;50.924;5.320;2023-08-24T05:18:39;21.70;99.90
25192;DHT22;13143;50.924;5.320;2023-08-24T05:21:06;21.80;99.90
25192;DHT22;13143;50.924;5.320;2023-08-24T05:23:33;21.70;99.90
25192;DHT22;13143;50.924;5.320;2023-08-24T05:26:00;21.70;99.90
25192;DHT22;13143;50.924;5.320;2023-08-24T05:28:28;21.70;99.90
25192;DHT22;13143;50.924;5.320;2023-08-24T05:30:55;21.70;99.90
25192;DHT22;13143;50.924;5.320;2023-08-24T05:33:22;21.70;99.90
25192;DHT22;13143;50.924;5.320;2023-08-24T05:35:49;21.70;99.90
25192;DHT22;13143;50.924;5.320;2023-08-24T05:38:16;21.70;99.90
25192;DHT22;13143;50.924;5.320;2023-08-24T05:40:43;21.70;99.90
25192;DHT22;13143;50.924;5.320;2023-08-24T05:43:09;21.60;99.90
25192;DHT22;13143;50.924;5.320;2023-08-24T05:45:36;21.70;99.90
25192;DHT22;13143;50.924;5.320;2023-08-24T05:48:02;21.60;99.90
25192;DHT22;13143;50.924;5.320;2023-08-24T05:50:29;21.60;99.90
25192;DHT22;13143;50.924;5.320;2023-08-24T05:52:55;21.60;99.90
25192;DHT22;13143;50.924;5.320;2023-08-24T05:55:21;21.60;99.90
25192;DHT22;13143;50.924;5.320;2023-08-24T05:57:47;21.60;99.90
25192;DHT22;13143;50.924;5.320;2023-08-24T06:00:14;21.60;99.90
25192;DHT22;13143;50.924;5.320;2023-08-24T06:02:40;21.60;99.90
25192;DHT22;13143;50.924;5.320;2023-08-24T06:05:07;21.60;99.90
25192;DHT22;13143;50.924;5.320;2023-08-24T06:07:34;21.60;99.90
25192;DHT22;13143;50.924;5.320;2023-08-24T06:10:00;21.60;99.90
25192;DHT22;13143;50.924;5.320;2023-08-24T06:12:26;21.60;99.90
25192;DHT22;13143;50.924;5.320;2023-08-24T06:14:53;21.60;99.90
25192;DHT22;13143;50.924;5.320;2023-08-24T06:17:19;21.60;99.90
25192;DHT22;13143;50.924;5.320;2023-08-24T06:19:45;21.60;99.90
25192;DHT22;13143;50.924;5.320;2023-08-24T06:22:11;21.60;99.90
25192;DHT22;13143;50.924;5.320;2023-08-24T06:24:37;21.60;99.90
25192;DHT22;13143;50.924;5.320;2023-08-24T06:27:03;21.60;99.90
25192;DHT22;13143;50.924;5.320;2023-08-24T06:29:29;21.60;99.90
25192;DHT22;13143;50.924;5.320;2023-08-24T06:31:55;21.60;99.90
25192;DHT22;13143;50.924;5.320;2023-08-24T06:34:22;21.60;99.90
25192;DHT22;13143;50.924;5.320;2023-08-24T06:36:53;21.60;99.90
25192;DHT22;13143;50.924;5.320;2023-08-24T06:39:19;21.70;99.90
25192;DHT22;13143;50.924;5.320;2023-08-24T06:41:45;21.70;99.90
25192;DHT22;13143;50.924;5.320;2023-08-24T06:44:12;21.70;99.90
25192;DHT22;13143;50.924;5.320;2023-08-24T06:46:39;21.70;99.90
25192;DHT22;13143;50.924;5.320;2023-08-24T06:49:06;21.70;99.90
25192;DHT22;13143;50.924;5.320;2023-08-24T06:51:32;21.70;99.90
25192;DHT22;13143;50.924;5.320;2023-08-24T06:53:58;21.70;99.90
25192;DHT22;13143;50.924;5.320;2023-08-24T06:56:24;21.80;99.90
25192;DHT22;13143;50.924;5.320;2023-08-24T06:58:50;21.80;99.90
25192;DHT22;13143;50.924;5.320;2023-08-24T07:01:16;21.80;99.90
25192;DHT22;13143;50.924;5.320;2023-08-24T07:03:43;21.90;99.90
25192;DHT22;13143;50.924;5.320;2023-08-24T07:06:09;21.90;99.90
25192;DHT22;13143;50.924;5.320;2023-08-24T07:08:38;21.90;99.90
25192;DHT22;13143;50.924;5.320;2023-08-24T07:11:04;22.00;99.90
25192;DHT22;13143;50.924;5.320;2023-08-24T07:13:30;22.00;99.90
25192;DHT22;13143;50.924;5.320;2023-08-24T07:15:56;22.00;99.90
25192;DHT22;13143;50.924;5.320;2023-08-24T07:18:23;22.00;99.90
25192;DHT22;13143;50.924;5.320;2023-08-24T07:20:49;22.10;99.90
25192;DHT22;13143;50.924;5.320;2023-08-24T07:23:15;22.10;99.90
25192;DHT22;13143;50.924;5.320;2023-08-24T07:25:41;22.10;99.90
25192;DHT22;13143;50.924;5.320;2023-08-24T07:28:07;22.10;99.90
25192;DHT22;13143;50.924;5.320;2023-08-24T07:30:35;22.20;99.90
25192;DHT22;13143;50.924;5.320;2023-08-24T07:33:02;22.20;99.90
25192;DHT22;13143;50.924;5.320;2023-08-24T07:35:31;22.20;99.90
25192;DHT22;13143;50.924;5.320;2023-08-24T07:37:57;22.30;99.90
25192;DHT22;13143;50.924;5.320;2023-08-24T07:40:24;22.30;99.90
25192;DHT22;13143;50.924;5.320;2023-08-24T07:42:53;22.40;99.90
25192;DHT22;13143;50.924;5.320;2023-08-24T07:45:21;22.40;99.90
25192;DHT22;13143;50.924;5.320;2023-08-24T07:47:49;22.40;99.90
25192;DHT22;13143;50.924;5.320;2023-08-24T07:50:15;22.40;99.90
25192;DHT22;13143;50.924;5.320;2023-08-24T07:52:42;22.50;99.90
25192;DHT22;13143;50.924;5.320;2023-08-24T07:55:08;22.50;99.90
25192;DHT22;13143;50.924;5.320;2023-08-24T07:57:36;22.60;99.90
25192;DHT22;13143;50.924;5.320;2023-08-24T08:00:04;22.60;99.90
25192;DHT22;13143;50.924;5.320;2023-08-24T08:02:30;22.60;99.90
25192;DHT22;13143;50.924;5.320;2023-08-24T08:04:59;22.70;99.90
25192;DHT22;13143;50.924;5.320;2023-08-24T08:07:26;22.70;99.90
25192;DHT22;13143;50.924;5.320;2023-08-24T08:09:53;22.80;99.90
25192;DHT22;13143;50.924;5.320;2023-08-24T08:12:19;22.80;99.90
25192;DHT22;13143;50.924;5.320;2023-08-24T08:14:45;22.80;99.90
25192;DHT22;13143;50.924;5.320;2023-08-24T08:17:11;22.90;99.90
25192;DHT22;13143;50.924;5.320;2023-08-24T08:19:37;22.90;99.90
25192;DHT22;13143;50.924;5.320;2023-08-24T08:22:04;23.00;99.90
25192;DHT22;13143;50.924;5.320;2023-08-24T08:24:30;23.00;99.90
25192;DHT22;13143;50.924;5.320;2023-08-24T08:26:56;23.00;99.90
25192;DHT22;13143;50.924;5.320;2023-08-24T08:29:23;23.10;99.90
25192;DHT22;13143;50.924;5.320;2023-08-24T08:31:49;23.10;99.90
25192;DHT22;13143;50.924;5.320;2023-08-24T08:34:15;23.10;99.90
25192;DHT22;13143;50.924;5.320;2023-08-24T08:36:41;23.20;99.90
25192;DHT22;13143;50.924;5.320;2023-08-24T08:39:07;23.20;99.90
25192;DHT22;13143;50.924;5.320;2023-08-24T08:41:41;23.20;99.90
25192;DHT22;13143;50.924;5.320;2023-08-24T08:44:10;23.30;99.90
25192;DHT22;13143;50.924;5.320;2023-08-24T08:46:39;23.30;99.90
25192;DHT22;13143;50.924;5.320;2023-08-24T08:49:06;23.40;99.90
25192;DHT22;13143;50.924;5.320;2023-08-24T08:51:37;23.40;99.90
25192;DHT22;13143;50.924;5.320;2023-08-24T08:54:04;23.40;99.90
25192;DHT22;13143;50.924;5.320;2023-08-24T08:56:34;23.40;99.90
25192;DHT22;13143;50.924;5.320;2023-08-24T08:59:01;23.50;99.90
25192;DHT22;13143;50.924;5.320;2023-08-24T09:01:28;23.50;99.90
25192;DHT22;13143;50.924;5.320;2023-08-24T09:03:54;23.50;99.90
25192;DHT22;13143;50.924;5.320;2023-08-24T09:06:22;23.60;99.90
25192;DHT22;13143;50.924;5.320;2023-08-24T09:08:49;23.60;99.90
25192;DHT22;13143;50.924;5.320;2023-08-24T09:11:17;23.60;99.90
25192;DHT22;13143;50.924;5.320;2023-08-24T09:13:46;23.60;99.90
25192;DHT22;13143;50.924;5.320;2023-08-24T09:16:12;23.70;99.90
25192;DHT22;13143;50.924;5.320;2023-08-24T09:18:46;23.70;99.90
25192;DHT22;13143;50.924;5.320;2023-08-24T09:21:14;23.70;99.90
25192;DHT22;13143;50.924;5.320;2023-08-24T09:23:44;23.80;99.90
25192;DHT22;13143;50.924;5.320;2023-08-24T09:26:11;23.80;99.90
25192;DHT22;13143;50.924;5.320;2023-08-24T09:28:38;23.90;99.90
25192;DHT22;13143;50.924;5.320;2023-08-24T09:31:07;23.90;99.90
25192;DHT22;13143;50.924;5.320;2023-08-24T09:33:36;23.90;99.90
25192;DHT22;13143;50.924;5.320;2023-08-24T09:36:06;24.00;99.90
25192;DHT22;13143;50.924;5.320;2023-08-24T09:38:33;24.00;99.90
25192;DHT22;13143;50.924;5.320;2023-08-24T09:41:01;24.00;99.90
25192;DHT22;13143;50.924;5.320;2023-08-24T09:43:30;24.00;99.90
25192;DHT22;13143;50.924;5.320;2023-08-24T09:45:59;24.10;99.90
25192;DHT22;13143;50.924;5.320;2023-08-24T09:48:25;24.10;99.90
25192;DHT22;13143;50.924;5.320;2023-08-24T09:50:52;24.10;99.90
25192;DHT22;13143;50.924;5.320;2023-08-24T09:53:19;24.20;99.90
25192;DHT22;13143;50.924;5.320;2023-08-24T09:55:59;24.20;99.90
25192;DHT22;13143;50.924;5.320;2023-08-24T09:58:26;24.20;99.90
25192;DHT22;13143;50.924;5.320;2023-08-24T10:00:53;24.20;99.90
25192;DHT22;13143;50.924;5.320;2023-08-24T10:03:21;24.20;99.90
25192;DHT22;13143;50.924;5.320;2023-08-24T10:05:52;24.20;99.90
25192;DHT22;13143;50.924;5.320;2023-08-24T10:08:26;24.30;99.90
25192;DHT22;13143;50.924;5.320;2023-08-24T10:10:56;24.30;99.90
25192;DHT22;13143;50.924;5.320;2023-08-24T10:16:20;24.40;99.90
25192;DHT22;13143;50.924;5.320;2023-08-24T10:18:47;24.40;99.90
25192;DHT22;13143;50.924;5.320;2023-08-24T10:21:15;24.40;99.90
25192;DHT22;13143;50.924;5.320;2023-08-24T10:23:42;24.40;99.90
25192;DHT22;13143;50.924;5.320;2023-08-24T10:26:10;24.40;99.90
25192;DHT22;13143;50.924;5.320;2023-08-24T10:28:39;24.50;99.90
25192;DHT22;13143;50.924;5.320;2023-08-24T10:31:05;24.50;99.90
25192;DHT22;13143;50.924;5.320;2023-08-24T10:33:33;24.50;99.90
25192;DHT22;13143;50.924;5.320;2023-08-24T10:36:00;24.50;99.90
25192;DHT22;13143;50.924;5.320;2023-08-24T10:38:28;24.40;99.90
25192;DHT22;13143;50.924;5.320;2023-08-24T10:41:02;24.40;99.90
25192;DHT22;13143;50.924;5.320;2023-08-24T10:43:38;24.50;99.90
25192;DHT22;13143;50.924;5.320;2023-08-24T10:46:11;24.50;99.90
25192;DHT22;13143;50.924;5.320;2023-08-24T10:51:23;24.40;99.90
25192;DHT22;13143;50.924;5.320;2023-08-24T10:54:02;24.50;99.90
25192;DHT22;13143;50.924;5.320;2023-08-24T10:56:38;24.50;99.90
25192;DHT22;13143;50.924;5.320;2023-08-24T10:59:16;24.40;99.90
25192;DHT22;13143;50.924;5.320;2023-08-24T11:04:18;24.40;99.90
25192;DHT22;13143;50.924;5.320;2023-08-24T11:06:55;24.40;99.90
25192;DHT22;13143;50.924;5.320;2023-08-24T11:09:23;24.40;99.90
25192;DHT22;13143;50.924;5.320;2023-08-24T11:11:57;24.40;99.90
25192;DHT22;13143;50.924;5.320;2023-08-24T11:14:24;24.40;99.90
25192;DHT22;13143;50.924;5.320;2023-08-24T11:16:58;24.30;99.90
25192;DHT22;13143;50.924;5.320;2023-08-24T11:19:25;24.30;99.90
25192;DHT22;13143;50.924;5.320;2023-08-24T11:21:51;24.40;99.90
25192;DHT22;13143;50.924;5.320;2023-08-24T11:24:18;24.30;99.90
25192;DHT22;13143;50.924;5.320;2023-08-24T11:26:48;24.30;99.90
25192;DHT22;13143;50.924;5.320;2023-08-24T11:29:15;24.30;99.90
25192;DHT22;13143;50.924;5.320;2023-08-24T11:31:47;24.20;99.90
25192;DHT22;13143;50.924;5.320;2023-08-24T11:34:16;24.20;99.90
25192;DHT22;13143;50.924;5.320;2023-08-24T11:36:49;24.20;99.90
25192;DHT22;13143;50.924;5.320;2023-08-24T11:39:17;24.20;99.90
25192;DHT22;13143;50.924;5.320;2023-08-24T11:41:44;24.20;99.90
25192;DHT22;13143;50.924;5.320;2023-08-24T11:44:10;24.20;99.90
25192;DHT22;13143;50.924;5.320;2023-08-24T11:46:37;24.20;99.90
25192;DHT22;13143;50.924;5.320;2023-08-24T11:49:05;24.20;99.90
25192;DHT22;13143;50.924;5.320;2023-08-24T11:51:32;24.20;99.90
25192;DHT22;13143;50.924;5.320;2023-08-24T11:54:00;24.20;99.90
25192;DHT22;13143;50.924;5.320;2023-08-24T11:56:26;24.20;99.90
25192;DHT22;13143;50.924;5.320;2023-08-24T11:58:54;24.20;99.90
25192;DHT22;13143;50.924;5.320;2023-08-24T12:01:20;24.20;99.90
25192;DHT22;13143;50.924;5.320;2023-08-24T12:03:46;24.20;99.90
25192;DHT22;13143;50.924;5.320;2023-08-24T12:06:14;24.20;99.90
25192;DHT22;13143;50.924;5.320;2023-08-24T12:08:42;24.20;99.90
25192;DHT22;13143;50.924;5.320;2023-08-24T12:11:19;24.20;99.90
25192;DHT22;13143;50.924;5.320;2023-08-24T12:13:48;24.20;99.90
25192;DHT22;13143;50.924;5.320;2023-08-24T12:16:16;24.20;99.90
25192;DHT22;13143;50.924;5.320;2023-08-24T12:18:47;24.20;99.90
25192;DHT22;13143;50.924;5.320;2023-08-24T12:21:14;24.20;99.90
25192;DHT22;13143;50.924;5.320;2023-08-24T12:23:40;24.20;99.90
25192;DHT22;13143;50.924;5.320;2023-08-24T12:26:06;24.30;99.90
25192;DHT22;13143;50.924;5.320;2023-08-24T12:28:34;24.20;99.90
25192;DHT22;13143;50.924;5.320;2023-08-24T12:31:01;24.30;99.90
25192;DHT22;13143;50.924;5.320;2023-08-24T12:33:31;24.20;99.90
25192;DHT22;13143;50.924;5.320;2023-08-24T12:35:58;24.20;99.90
25192;DHT22;13143;50.924;5.320;2023-08-24T12:38:27;24.20;99.90
25192;DHT22;13143;50.924;5.320;2023-08-24T12:40:53;24.20;99.90
25192;DHT22;13143;50.924;5.320;2023-08-24T12:43:20;24.20;99.90
25192;DHT22;13143;50.924;5.320;2023-08-24T12:45:46;24.20;99.90
25192;DHT22;13143;50.924;5.320;2023-08-24T12:48:12;24.20;99.90
25192;DHT22;13143;50.924;5.320;2023-08-24T12:50:38;24.20;99.90
25192;DHT22;13143;50.924;5.320;2023-08-24T12:53:05;24.20;99.90
25192;DHT22;13143;50.924;5.320;2023-08-24T12:55:36;24.20;99.90
25192;DHT22;13143;50.924;5.320;2023-08-24T12:58:02;24.20;99.90
25192;DHT22;13143;50.924;5.320;2023-08-24T13:00:29;24.20;99.90
25192;DHT22;13143;50.924;5.320;2023-08-24T13:02:55;24.20;99.90
25192;DHT22;13143;50.924;5.320;2023-08-24T13:05:21;24.20;99.90
25192;DHT22;13143;50.924;5.320;2023-08-24T13:07:48;24.20;99.90
25192;DHT22;13143;50.924;5.320;2023-08-24T13:10:14;24.20;99.90
25192;DHT22;13143;50.924;5.320;2023-08-24T13:12:40;24.20;99.90
25192;DHT22;13143;50.924;5.320;2023-08-24T13:15:07;24.20;99.90
25192;DHT22;13143;50.924;5.320;2023-08-24T13:17:33;24.10;99.90
25192;DHT22;13143;50.924;5.320;2023-08-24T13:19:59;24.10;99.90
25192;DHT22;13143;50.924;5.320;2023-08-24T13:22:25;24.00;99.90
25192;DHT22;13143;50.924;5.320;2023-08-24T13:24:52;24.00;99.90
25192;DHT22;13143;50.924;5.320;2023-08-24T13:27:18;24.00;99.90
25192;DHT22;13143;50.924;5.320;2023-08-24T13:29:45;24.00;99.90
25192;DHT22;13143;50.924;5.320;2023-08-24T13:32:11;24.00;99.90
25192;DHT22;13143;50.924;5.320;2023-08-24T13:34:37;24.00;99.90
25192;DHT22;13143;50.924;5.320;2023-08-24T13:37:03;23.90;99.90
25192;DHT22;13143;50.924;5.320;2023-08-24T13:39:30;23.90;99.90
25192;DHT22;13143;50.924;5.320;2023-08-24T13:41:56;23.90;99.90
25192;DHT22;13143;50.924;5.320;2023-08-24T13:44:23;23.90;99.90
25192;DHT22;13143;50.924;5.320;2023-08-24T13:46:50;23.90;99.90
25192;DHT22;13143;50.924;5.320;2023-08-24T13:49:18;23.80;99.90
25192;DHT22;13143;50.924;5.320;2023-08-24T13:51:44;23.80;99.90
25192;DHT22;13143;50.924;5.320;2023-08-24T13:54:15;23.80;99.90
25192;DHT22;13143;50.924;5.320;2023-08-24T13:56:46;23.60;99.90
25192;DHT22;13143;50.924;5.320;2023-08-24T13:59:13;23.60;99.90
25192;DHT22;13143;50.924;5.320;2023-08-24T14:01:42;23.60;99.90
25192;DHT22;13143;50.924;5.320;2023-08-24T14:04:08;23.60;99.90
25192;DHT22;13143;50.924;5.320;2023-08-24T14:06:35;23.50;99.90
25192;DHT22;13143;50.924;5.320;2023-08-24T14:09:03;23.40;99.90
25192;DHT22;13143;50.924;5.320;2023-08-24T14:11:30;23.30;99.90
25192;DHT22;13143;50.924;5.320;2023-08-24T14:13:57;23.30;99.90
25192;DHT22;13143;50.924;5.320;2023-08-24T14:16:24;23.30;99.90
25192;DHT22;13143;50.924;5.320;2023-08-24T14:18:51;23.30;99.90
25192;DHT22;13143;50.924;5.320;2023-08-24T14:21:18;23.20;99.90
25192;DHT22;13143;50.924;5.320;2023-08-24T14:23:46;23.20;99.90
25192;DHT22;13143;50.924;5.320;2023-08-24T14:26:12;23.20;99.90
25192;DHT22;13143;50.924;5.320;2023-08-24T14:28:50;23.10;99.90
25192;DHT22;13143;50.924;5.320;2023-08-24T14:31:17;23.00;99.90
25192;DHT22;13143;50.924;5.320;2023-08-24T14:33:43;23.00;99.90
25192;DHT22;13143;50.924;5.320;2023-08-24T14:36:10;23.00;99.90
25192;DHT22;13143;50.924;5.320;2023-08-24T14:38:39;22.90;99.90
25192;DHT22;13143;50.924;5.320;2023-08-24T14:41:11;23.00;99.90
25192;DHT22;13143;50.924;5.320;2023-08-24T14:43:38;22.90;99.90
25192;DHT22;13143;50.924;5.320;2023-08-24T14:46:04;22.80;99.90
25192;DHT22;13143;50.924;5.320;2023-08-24T14:48:30;22.90;99.90
25192;DHT22;13143;50.924;5.320;2023-08-24T14:50:57;22.80;99.90
25192;DHT22;13143;50.924;5.320;2023-08-24T14:53:28;22.80;99.90
25192;DHT22;13143;50.924;5.320;2023-08-24T14:55:56;22.70;99.90
25192;DHT22;13143;50.924;5.320;2023-08-24T14:58:26;22.80;99.90
25192;DHT22;13143;50.924;5.320;2023-08-24T15:00:54;22.80;99.90
25192;DHT22;13143;50.924;5.320;2023-08-24T15:03:21;22.70;99.90
25192;DHT22;13143;50.924;5.320;2023-08-24T15:06:04;22.70;99.90
25192;DHT22;13143;50.924;5.320;2023-08-24T15:08:32;22.70;99.90
25192;DHT22;13143;50.924;5.320;2023-08-24T15:11:00;22.70;99.90
25192;DHT22;13143;50.924;5.320;2023-08-24T15:13:27;22.70;99.90
25192;DHT22;13143;50.924;5.320;2023-08-24T15:15:55;22.60;99.90
25192;DHT22;13143;50.924;5.320;2023-08-24T15:18:22;22.60;99.90
25192;DHT22;13143;50.924;5.320;2023-08-24T15:20:49;22.60;99.90
25192;DHT22;13143;50.924;5.320;2023-08-24T15:25:53;22.60;99.90
25192;DHT22;13143;50.924;5.320;2023-08-24T15:28:19;22.60;99.90
25192;DHT22;13143;50.924;5.320;2023-08-24T15:30:46;22.60;99.90
25192;DHT22;13143;50.924;5.320;2023-08-24T15:33:12;22.50;99.90
25192;DHT22;13143;50.924;5.320;2023-08-24T15:35:42;22.50;99.90
25192;DHT22;13143;50.924;5.320;2023-08-24T15:38:09;22.50;99.90
25192;DHT22;13143;50.924;5.320;2023-08-24T15:40:37;22.50;99.90
25192;DHT22;13143;50.924;5.320;2023-08-24T15:43:05;22.50;99.90
25192;DHT22;13143;50.924;5.320;2023-08-24T15:45:31;22.50;99.90